createdAt,value
2022-08-19T00:04:30.937Z,23.29
2022-08-19T00:14:37.470Z,23.21
2022-08-19T00:24:43.849Z,23.33
2022-08-19T00:34:54.924Z,23.24
2022-08-19T00:45:00.889Z,23.15
2022-08-19T00:55:07.191Z,23.28
2022-08-19T01:05:13.345Z,23.02
2022-08-19T01:15:19.514Z,23.08
2022-08-19T01:25:25.547Z,22.88
2022-08-19T01:35:33.178Z,23.11
2022-08-19T01:45:40.661Z,23.15
2022-08-19T01:55:46.221Z,23.02
2022-08-19T02:05:54.172Z,23.27
2022-08-19T02:16:00.240Z,23.37
2022-08-19T02:26:12.658Z,23.35
2022-08-19T02:36:20.791Z,23.39
2022-08-19T02:46:27.791Z,23.39
2022-08-19T02:56:34.120Z,23.30
2022-08-19T03:06:40.302Z,22.92
2022-08-19T03:16:46.912Z,23.02
2022-08-19T03:26:53.285Z,22.98
2022-08-19T03:37:00.234Z,23.23
2022-08-19T03:47:06.490Z,23.08
2022-08-19T03:57:13.018Z,22.80
2022-08-19T04:07:19.126Z,22.95
2022-08-19T04:17:25.736Z,23.21
2022-08-19T04:27:32.109Z,23.28
2022-08-19T04:37:38.244Z,23.16
2022-08-19T04:47:49.263Z,23.19
2022-08-19T04:57:55.995Z,22.95
2022-08-19T05:08:01.966Z,23.18
2022-08-19T05:18:08.235Z,23.28
2022-08-19T05:28:14.276Z,23.33
2022-08-19T05:38:20.824Z,23.38
2022-08-19T05:48:27.022Z,23.43
2022-08-19T05:58:32.922Z,23.47
2022-08-19T06:08:38.596Z,23.48
2022-08-19T06:18:44.306Z,23.48
2022-08-19T06:28:50.276Z,23.52
2022-08-19T06:38:58.701Z,23.51
2022-08-19T06:49:04.985Z,23.53
2022-08-19T06:59:12.057Z,23.55
2022-08-19T07:09:18.648Z,23.58
2022-08-19T07:19:25.038Z,23.59
2022-08-19T07:29:31.118Z,23.59
2022-08-19T07:39:37.710Z,23.63
2022-08-19T07:49:44.316Z,23.66
2022-08-19T07:59:53.740Z,23.68
2022-08-19T08:09:59.358Z,23.67
2022-08-19T08:20:11.675Z,23.73
2022-08-19T08:30:18.121Z,23.76
2022-08-19T08:40:24.986Z,23.80
2022-08-19T08:50:31.475Z,23.84
2022-08-19T09:00:37.745Z,23.91
2022-08-19T09:10:44.979Z,23.92
2022-08-19T09:20:53.073Z,23.95
2022-08-19T09:30:59.498Z,24.02
2022-08-19T09:41:05.861Z,24.07
2022-08-19T09:51:13.704Z,24.17
2022-08-19T10:01:23.528Z,24.25
2022-08-19T10:11:36.572Z,24.30
2022-08-19T10:21:42.260Z,24.34
2022-08-19T10:32:00.095Z,24.36
2022-08-19T10:42:00.719Z,24.34
2022-08-19T10:52:06.663Z,24.34
2022-08-19T11:02:18.700Z,24.34
2022-08-19T11:12:24.739Z,24.34
2022-08-19T11:22:39.045Z,24.30
2022-08-19T11:32:49.416Z,24.32
2022-08-19T11:42:55.748Z,24.34
2022-08-19T11:53:03.793Z,24.38
2022-08-19T12:03:12.404Z,24.48
2022-08-19T12:13:18.877Z,24.59
2022-08-19T12:23:25.428Z,24.69
2022-08-19T12:33:31.771Z,24.73
2022-08-19T12:43:38.203Z,24.75
2022-08-19T12:53:44.530Z,24.75
2022-08-19T13:03:51.128Z,24.81
2022-08-19T13:13:57.577Z,24.84
2022-08-19T13:24:04.515Z,24.84
2022-08-19T13:34:13.723Z,24.84
2022-08-19T13:44:19.677Z,24.84
2022-08-19T13:54:27.962Z,24.84
2022-08-19T14:04:34.350Z,24.86
2022-08-19T14:14:40.642Z,24.90
2022-08-19T14:24:47.923Z,24.90
2022-08-19T14:34:54.371Z,24.92
2022-08-19T14:45:00.047Z,24.94
2022-08-19T14:55:07.519Z,24.95
2022-08-19T15:05:13.741Z,24.96
2022-08-19T15:15:19.600Z,24.97
2022-08-19T15:25:25.292Z,24.98
2022-08-19T15:35:31.266Z,25.01
2022-08-19T15:45:37.088Z,25.05
2022-08-19T15:55:42.896Z,25.07
2022-08-19T16:05:48.719Z,25.07
2022-08-19T16:15:54.690Z,25.07
2022-08-19T16:26:00.635Z,25.03
2022-08-19T16:36:07.706Z,25.00
2022-08-19T16:46:18.607Z,24.96
2022-08-19T16:56:24.828Z,24.92
2022-08-19T17:06:30.707Z,24.90
2022-08-19T17:16:36.574Z,24.88
2022-08-19T17:26:42.097Z,24.84
2022-08-19T17:36:48.020Z,24.78
2022-08-19T17:46:53.800Z,24.75
2022-08-19T17:56:59.406Z,24.69
2022-08-19T18:07:05.345Z,24.65
2022-08-19T18:18:42.000Z,24.70
2022-08-19T18:28:49.724Z,24.57
2022-08-19T18:38:55.997Z,24.32
2022-08-19T18:49:01.380Z,23.62
2022-08-19T18:59:07.038Z,23.68
2022-08-19T19:09:13.437Z,23.88
2022-08-19T19:19:21.537Z,23.95
2022-08-19T19:29:29.905Z,23.92
2022-08-19T19:39:46.403Z,23.90
2022-08-19T19:50:12.707Z,23.88
2022-08-19T20:00:00.763Z,23.70
2022-08-19T20:10:06.773Z,23.58
2022-08-19T20:20:14.385Z,23.16
2022-08-19T20:30:20.140Z,22.84
2022-08-19T20:40:28.335Z,22.77
2022-08-19T20:50:34.469Z,22.92
2022-08-19T21:00:40.747Z,22.76
2022-08-19T21:10:47.152Z,22.61
2022-08-19T21:20:53.235Z,22.45
2022-08-19T21:30:59.817Z,22.51
2022-08-19T21:41:06.868Z,22.34
2022-08-19T21:51:13.346Z,22.25
2022-08-19T22:01:20.446Z,22.39
2022-08-19T22:11:26.566Z,22.39
2022-08-19T22:21:40.278Z,21.94
2022-08-19T22:31:43.903Z,22.10
2022-08-19T22:41:50.000Z,22.15
2022-08-19T22:51:56.208Z,21.68
2022-08-19T23:02:06.549Z,21.68
2022-08-19T23:12:12.310Z,21.77
2022-08-19T23:22:20.159Z,21.76
2022-08-19T23:32:31.085Z,21.76
2022-08-19T23:42:37.470Z,21.73
2022-08-19T23:52:43.642Z,21.48
